Time;durP1;ratioP1;P1;durP2;ratioP2;P2;SDS_P1;SDS_P2;PMS_P1;PMS_P2;Temp;Humidity;BMP_temperature;BMP_pressure;BME280_temperature;BME280_humidity;BME280_pressure;Samples;Min_cycle;Max_cycle;Signal;HPM_P1;HPM_P2
2022/10/30 00:00:37;;;;;;;10.90;9.50;;;;;;;;;;5117287;27;20030;-82
2022/10/30 00:03:03;;;;;;;11.63;9.25;;;;;;;;;;5135236;27;20024;-82
2022/10/30 00:05:30;;;;;;;11.98;10.27;;;;;;;;;;5135247;27;20027;-82
2022/10/30 00:07:56;;;;;;;11.55;9.65;;;;;;;;;;5135324;27;20422;-83
2022/10/30 00:10:22;;;;;;;13.07;9.38;;;;;;;;;;5135171;27;20060;-83
2022/10/30 00:12:48;;;;;;;10.77;9.68;;;;;;;;;;5135288;27;20027;-82
2022/10/30 00:15:15;;;;;;;12.35;9.43;;;;;;;;;;5134992;27;20470;-81
2022/10/30 00:17:41;;;;;;;12.40;11.10;;;;;;;;;;5135125;27;20038;-80
2022/10/30 00:20:07;;;;;;;11.32;9.85;;;;;;;;;;5135216;27;20030;-82
2022/10/30 00:22:34;;;;;;;11.27;9.85;;;;;;;;;;5134963;27;20019;-83
2022/10/30 00:25:00;;;;;;;12.65;9.75;;;;;;;;;;5134953;27;20023;-81
2022/10/30 00:27:27;;;;;;;12.07;10.50;;;;;;;;;;5134798;27;20054;-80
2022/10/30 00:29:53;;;;;;;12.10;10.38;;;;;;;;;;5134867;27;20023;-83
2022/10/30 00:32:19;;;;;;;14.38;9.95;;;;;;;;;;5134628;27;20102;-80
2022/10/30 00:34:45;;;;;;;12.38;10.18;;;;;;;;;;5134890;27;20110;-80
2022/10/30 00:37:11;;;;;;;11.93;10.02;;;;;;;;;;5134822;27;20381;-81
2022/10/30 00:39:37;;;;;;;11.40;10.20;;;;;;;;;;5134641;27;20019;-82
2022/10/30 00:42:03;;;;;;;12.40;10.00;;;;;;;;;;5134714;27;20033;-82
2022/10/30 00:44:36;;;;;;;13.75;10.93;;;;;;;;;;5134468;27;20046;-81
2022/10/30 00:47:04;;;;;;;14.52;11.32;;;;;;;;;;5116120;27;20023;-81
2022/10/30 00:49:34;;;;;;;13.13;10.80;;;;;;;;;;5134546;27;20098;-80
2022/10/30 00:52:02;;;;;;;12.30;9.88;;;;;;;;;;5134235;27;20409;-83
2022/10/30 00:54:28;;;;;;;12.00;10.48;;;;;;;;;;5134212;27;20367;-80
2022/10/30 00:56:55;;;;;;;11.25;9.23;;;;;;;;;;5134380;27;20145;-81
2022/10/30 00:59:26;;;;;;;14.15;9.88;;;;;;;;;;5134234;27;20023;-83
2022/10/30 01:01:53;;;;;;;11.27;10.18;;;;;;;;;;5134431;27;20458;-83
2022/10/30 01:04:20;;;;;;;10.77;9.68;;;;;;;;;;5134127;27;20570;-80
2022/10/30 01:06:50;;;;;;;10.70;9.60;;;;;;;;;;5115655;27;20050;-81
2022/10/30 01:09:17;;;;;;;12.98;9.75;;;;;;;;;;5133895;27;20019;-80
2022/10/30 01:11:43;;;;;;;10.73;9.13;;;;;;;;;;5115703;27;20436;-80
2022/10/30 01:14:10;;;;;;;11.75;10.55;;;;;;;;;;5133967;27;20015;-80
2022/10/30 01:16:54;;;;;;;10.77;9.77;;;;;;;;;;5134012;27;20424;-83
2022/10/30 01:19:39;;;;;;;11.57;10.35;;;;;;;;;;5134093;27;20466;-83
2022/10/30 01:22:24;;;;;;;11.48;9.98;;;;;;;;;;5115591;27;20034;-84
2022/10/30 01:25:08;;;;;;;12.25;10.20;;;;;;;;;;5133829;27;20078;-83
2022/10/30 01:27:53;;;;;;;13.55;11.15;;;;;;;;;;5133639;27;20027;-83
2022/10/30 01:30:25;;;;;;;16.40;13.55;;;;;;;;;;5133839;27;20078;-81
2022/10/30 01:33:03;;;;;;;13.07;11.75;;;;;;;;;;5133759;27;20519;-81
2022/10/30 01:35:48;;;;;;;13.88;12.45;;;;;;;;;;5133823;27;20027;-81
2022/10/30 01:38:14;;;;;;;;;;;;;;;;;;5134281;27;20039;-82
2022/10/30 01:40:40;;;;;;;13.15;11.57;;;;;;;;;;5133459;27;19910;-83
2022/10/30 01:43:06;;;;;;;13.90;11.60;;;;;;;;;;5133741;27;20030;-81
2022/10/30 01:45:35;;;;;;;13.25;11.55;;;;;;;;;;5133580;27;20478;-82
2022/10/30 01:48:01;;;;;;;12.10;10.73;;;;;;;;;;5133564;27;20038;-82
2022/10/30 01:50:33;;;;;;;13.07;11.48;;;;;;;;;;5133546;27;20023;-81
2022/10/30 01:53:02;;;;;;;12.88;11.48;;;;;;;;;;5133381;27;20062;-83
2022/10/30 01:55:42;;;;;;;15.23;11.93;;;;;;;;;;5133413;27;20031;-81
2022/10/30 01:58:16;;;;;;;13.20;11.18;;;;;;;;;;5133422;28;20015;-83
2022/10/30 02:00:43;;;;;;;13.77;11.30;;;;;;;;;;5133084;27;20019;-81
2022/10/30 02:03:09;;;;;;;13.35;11.30;;;;;;;;;;5133319;28;20023;-83
2022/10/30 02:05:38;;;;;;;13.35;11.48;;;;;;;;;;5133281;28;20160;-80
2022/10/30 02:08:04;;;;;;;13.57;11.73;;;;;;;;;;5133242;28;20123;-80
2022/10/30 02:10:31;;;;;;;13.90;11.68;;;;;;;;;;5115008;28;20053;-83
2022/10/30 02:12:57;;;;;;;13.73;12.25;;;;;;;;;;5133378;28;20016;-80
2022/10/30 02:15:23;;;;;;;14.85;11.90;;;;;;;;;;5133066;28;20106;-83
2022/10/30 02:17:49;;;;;;;12.68;11.20;;;;;;;;;;5133310;28;20027;-80
2022/10/30 02:20:16;;;;;;;13.70;11.57;;;;;;;;;;5133196;28;20027;-82
2022/10/30 02:22:42;;;;;;;13.07;11.60;;;;;;;;;;5133398;28;20531;-82
2022/10/30 02:25:09;;;;;;;12.88;10.90;;;;;;;;;;5114753;28;20026;-82
2022/10/30 02:27:35;;;;;;;13.32;11.70;;;;;;;;;;5133112;28;20572;-83
2022/10/30 02:30:01;;;;;;;13.70;11.73;;;;;;;;;;5133226;28;20019;-81
2022/10/30 02:32:27;;;;;;;13.48;11.02;;;;;;;;;;5114643;28;20043;-82
2022/10/30 02:34:53;;;;;;;14.20;11.32;;;;;;;;;;5114623;28;20027;-80
2022/10/30 02:37:19;;;;;;;14.30;11.52;;;;;;;;;;5132958;28;20087;-81
2022/10/30 02:39:45;;;;;;;12.93;11.50;;;;;;;;;;5133175;28;20034;-83
2022/10/30 02:42:11;;;;;;;15.68;13.13;;;;;;;;;;5133009;28;20363;-83
2022/10/30 02:44:37;;;;;;;15.25;11.93;;;;;;;;;;5133032;28;20087;-84
2022/10/30 02:47:04;;;;;;;14.20;12.73;;;;;;;;;;5132975;28;20083;-80
2022/10/30 02:49:30;;;;;;;14.05;12.15;;;;;;;;;;5132861;28;20042;-81
2022/10/30 02:51:56;;;;;;;13.50;12.10;;;;;;;;;;5133091;28;20050;-82
2022/10/30 02:54:22;;;;;;;15.07;12.50;;;;;;;;;;5132889;28;20566;-83
2022/10/30 02:56:48;;;;;;;14.55;12.48;;;;;;;;;;5132940;28;20023;-82
2022/10/30 02:59:14;;;;;;;15.63;12.38;;;;;;;;;;5132802;28;20164;-81
2022/10/30 03:01:40;;;;;;;14.82;13.25;;;;;;;;;;5132763;28;20027;-81
2022/10/30 03:04:06;;;;;;;15.00;12.00;;;;;;;;;;5132818;28;20055;-80
2022/10/30 03:06:32;;;;;;;14.30;11.82;;;;;;;;;;5132791;28;20096;-80
2022/10/30 03:08:58;;;;;;;16.25;12.50;;;;;;;;;;5132719;28;20023;-81
2022/10/30 03:11:24;;;;;;;17.67;13.27;;;;;;;;;;5114645;28;20019;-82
2022/10/30 03:13:50;;;;;;;15.90;12.68;;;;;;;;;;5134694;27;20423;-80
2022/10/30 03:16:21;;;;;;;13.95;11.93;;;;;;;;;;5136424;27;20098;-82
2022/10/30 03:18:47;;;;;;;19.40;13.18;;;;;;;;;;5136224;27;20019;-81
2022/10/30 03:21:15;;;;;;;15.40;12.00;;;;;;;;;;5136297;27;20027;-81
2022/10/30 03:23:41;;;;;;;13.98;12.57;;;;;;;;;;5117697;27;20103;-83
2022/10/30 03:26:08;;;;;;;16.73;12.52;;;;;;;;;;5136097;27;20098;-80
2022/10/30 03:28:34;;;;;;;18.63;12.93;;;;;;;;;;5136169;27;20058;-81
2022/10/30 03:31:01;;;;;;;15.07;12.30;;;;;;;;;;5136072;27;20015;-83
2022/10/30 03:33:27;;;;;;;15.10;12.80;;;;;;;;;;5136072;27;20462;-82
2022/10/30 03:35:54;;;;;;;14.18;12.55;;;;;;;;;;5135998;27;20133;-80
2022/10/30 03:38:20;;;;;;;15.65;13.30;;;;;;;;;;5136164;27;20470;-80
2022/10/30 03:40:46;;;;;;;13.48;12.07;;;;;;;;;;5135746;27;20031;-80
2022/10/30 03:43:12;;;;;;;14.38;11.77;;;;;;;;;;5135916;27;20031;-82
2022/10/30 03:45:38;;;;;;;14.88;11.73;;;;;;;;;;5135690;27;20019;-81
2022/10/30 03:48:05;;;;;;;13.77;12.25;;;;;;;;;;5135779;27;20076;-80
2022/10/30 03:50:32;;;;;;;14.80;12.55;;;;;;;;;;5135835;27;20023;-82
2022/10/30 03:52:58;;;;;;;13.85;12.45;;;;;;;;;;5135591;27;20047;-81
2022/10/30 03:55:24;;;;;;;14.52;12.35;;;;;;;;;;5135717;27;20378;-81
2022/10/30 03:57:51;;;;;;;13.48;12.07;;;;;;;;;;5135381;27;20481;-83
2022/10/30 04:00:17;;;;;;;15.07;12.48;;;;;;;;;;5117215;27;20034;-81
2022/10/30 04:02:47;;;;;;;14.65;12.43;;;;;;;;;;5135268;27;20448;-80
2022/10/30 04:05:14;;;;;;;13.05;11.50;;;;;;;;;;5135401;27;20011;-81
2022/10/30 04:07:40;;;;;;;13.13;11.60;;;;;;;;;;5135152;27;20028;-80
2022/10/30 04:10:06;;;;;;;13.85;12.05;;;;;;;;;;5135313;27;20023;-81
2022/10/30 04:12:33;;;;;;;15.38;12.63;;;;;;;;;;5135393;27;20015;-83
2022/10/30 04:14:59;;;;;;;16.52;12.32;;;;;;;;;;5135115;27;20050;-80
2022/10/30 04:17:25;;;;;;;14.52;12.30;;;;;;;;;;5135216;27;20031;-82
2022/10/30 04:19:51;;;;;;;14.85;11.68;;;;;;;;;;5134994;27;20440;-82
2022/10/30 04:22:17;;;;;;;16.55;12.27;;;;;;;;;;5135187;27;20030;-81
2022/10/30 04:24:44;;;;;;;14.35;12.73;;;;;;;;;;5134669;27;20068;-83
2022/10/30 04:27:10;;;;;;;13.07;11.77;;;;;;;;;;5135044;27;20034;-82
2022/10/30 04:29:36;;;;;;;15.57;12.98;;;;;;;;;;5135082;27;20098;-81
2022/10/30 04:32:03;;;;;;;26.05;19.33;;;;;;;;;;5134799;27;20068;-82
2022/10/30 04:34:29;;;;;;;30.67;23.25;;;;;;;;;;5135184;27;20578;-81
2022/10/30 04:36:55;;;;;;;27.48;21.27;;;;;;;;;;5134610;27;20087;-82
2022/10/30 04:39:21;;;;;;;20.38;15.50;;;;;;;;;;5134773;27;20050;-81
2022/10/30 04:41:47;;;;;;;23.77;17.65;;;;;;;;;;5134735;27;20398;-81
2022/10/30 04:44:13;;;;;;;23.23;15.18;;;;;;;;;;5134622;27;20044;-81
2022/10/30 04:46:39;;;;;;;19.15;13.05;;;;;;;;;;5134723;27;20030;-82
2022/10/30 04:49:05;;;;;;;14.02;12.48;;;;;;;;;;5134466;27;20030;-82
2022/10/30 04:51:31;;;;;;;15.73;12.70;;;;;;;;;;5133954;27;20130;-81
2022/10/30 04:53:57;;;;;;;16.20;13.40;;;;;;;;;;5134272;27;20024;-80
2022/10/30 04:56:24;;;;;;;16.80;13.32;;;;;;;;;;5134412;27;20030;-81
2022/10/30 04:58:51;;;;;;;16.17;12.90;;;;;;;;;;5134455;27;20019;-82
2022/10/30 05:01:17;;;;;;;18.08;15.57;;;;;;;;;;5134314;27;20016;-83
2022/10/30 05:03:43;;;;;;;14.90;12.55;;;;;;;;;;5134413;27;20019;-81
2022/10/30 05:06:29;;;;;;;13.10;11.57;;;;;;;;;;5133994;27;20023;-80
2022/10/30 05:08:55;;;;;;;16.63;12.93;;;;;;;;;;5134031;27;20033;-83
2022/10/30 05:11:21;;;;;;;14.27;11.73;;;;;;;;;;5134156;27;20092;-82
2022/10/30 05:13:47;;;;;;;13.48;11.73;;;;;;;;;;5133966;27;20089;-83
2022/10/30 05:16:13;;;;;;;16.42;11.98;;;;;;;;;;5134257;27;20091;-81
2022/10/30 05:18:40;;;;;;;13.43;11.32;;;;;;;;;;5133918;27;20055;-82
2022/10/30 05:21:06;;;;;;;14.07;11.45;;;;;;;;;;5133966;27;20512;-81
2022/10/30 05:23:32;;;;;;;13.60;12.20;;;;;;;;;;5114826;27;20039;-83
2022/10/30 05:26:01;;;;;;;13.68;11.20;;;;;;;;;;5133738;27;20019;-83
2022/10/30 05:28:28;;;;;;;13.00;11.13;;;;;;;;;;5133699;27;20103;-80
2022/10/30 05:30:54;;;;;;;15.30;11.98;;;;;;;;;;5133312;27;20016;-83
2022/10/30 05:33:20;;;;;;;16.60;14.90;;;;;;;;;;5133733;27;20593;-80
2022/10/30 05:35:46;;;;;;;13.90;12.50;;;;;;;;;;5114710;27;20072;-80
2022/10/30 05:38:17;;;;;;;15.60;12.55;;;;;;;;;;5133310;27;20031;-83
2022/10/30 05:40:45;;;;;;;14.25;12.50;;;;;;;;;;5133303;27;20030;-81
2022/10/30 05:43:12;;;;;;;17.00;13.38;;;;;;;;;;5114937;27;20023;-81
2022/10/30 05:45:38;;;;;;;16.83;13.27;;;;;;;;;;5133319;27;20382;-82
2022/10/30 05:48:04;;;;;;;15.38;12.50;;;;;;;;;;5132837;27;20020;-84
2022/10/30 05:50:31;;;;;;;14.60;13.05;;;;;;;;;;5133601;27;20023;-81
2022/10/30 05:52:57;;;;;;;14.73;12.77;;;;;;;;;;5132613;27;20050;-82
2022/10/30 05:55:24;;;;;;;18.98;13.23;;;;;;;;;;5133327;27;20055;-80
2022/10/30 05:57:54;;;;;;;15.98;13.75;;;;;;;;;;5133189;27;20016;-83
2022/10/30 06:00:20;;;;;;;15.25;13.35;;;;;;;;;;5133346;28;20057;-81
2022/10/30 06:02:46;;;;;;;16.60;13.57;;;;;;;;;;5133357;28;20019;-82
2022/10/30 06:05:12;;;;;;;15.15;13.55;;;;;;;;;;5133457;28;20381;-81
2022/10/30 06:07:39;;;;;;;16.80;13.73;;;;;;;;;;5133373;28;20106;-81
2022/10/30 06:10:05;;;;;;;16.13;14.07;;;;;;;;;;5133267;28;20054;-81
2022/10/30 06:12:31;;;;;;;14.88;13.30;;;;;;;;;;5133409;28;20019;-82
2022/10/30 06:14:57;;;;;;;13.73;12.25;;;;;;;;;;5133064;28;20042;-81
2022/10/30 06:17:23;;;;;;;15.00;12.70;;;;;;;;;;5133294;28;20080;-81
2022/10/30 06:19:49;;;;;;;15.88;12.85;;;;;;;;;;5133233;28;20019;-81
2022/10/30 06:22:15;;;;;;;14.50;13.00;;;;;;;;;;5132793;28;20023;-83
2022/10/30 06:24:41;;;;;;;14.18;12.70;;;;;;;;;;5114984;28;20501;-80
2022/10/30 06:27:08;;;;;;;13.48;12.00;;;;;;;;;;5132679;28;20031;-83
2022/10/30 06:29:34;;;;;;;16.95;12.57;;;;;;;;;;5114804;28;20030;-83
2022/10/30 06:32:00;;;;;;;15.68;11.32;;;;;;;;;;5133081;28;20019;-82
2022/10/30 06:34:26;;;;;;;13.10;11.55;;;;;;;;;;5132938;28;20030;-82
2022/10/30 06:36:52;;;;;;;12.85;11.35;;;;;;;;;;5133213;28;20027;-84
2022/10/30 06:39:18;;;;;;;13.65;11.82;;;;;;;;;;5132298;28;20474;-80
2022/10/30 06:41:44;;;;;;;14.48;12.10;;;;;;;;;;5133141;28;20095;-81
2022/10/30 06:44:10;;;;;;;14.45;11.18;;;;;;;;;;5132775;28;20379;-83
2022/10/30 06:46:36;;;;;;;13.23;11.57;;;;;;;;;;5133363;27;20015;-83
2022/10/30 06:49:02;;;;;;;15.48;11.85;;;;;;;;;;5118184;27;20121;-83
2022/10/30 06:51:29;;;;;;;17.70;12.90;;;;;;;;;;5135767;27;20055;-82
2022/10/30 06:53:55;;;;;;;16.88;12.98;;;;;;;;;;5117595;27;20531;-81
2022/10/30 06:56:21;;;;;;;41.80;15.15;;;;;;;;;;5136041;27;20066;-81
2022/10/30 06:58:47;;;;;;;21.50;13.40;;;;;;;;;;5136581;27;20023;-83
2022/10/30 07:01:13;;;;;;;164.50;27.25;;;;;;;;;;5136482;27;20096;-80
2022/10/30 07:03:39;;;;;;;29.17;14.75;;;;;;;;;;5136618;27;20016;-82
2022/10/30 07:06:05;;;;;;;70.13;17.83;;;;;;;;;;5136788;27;20055;-83
2022/10/30 07:08:31;;;;;;;17.25;12.27;;;;;;;;;;5136570;27;20070;-82
2022/10/30 07:10:57;;;;;;;18.10;13.50;;;;;;;;;;5136786;27;20027;-81
2022/10/30 07:13:24;;;;;;;17.17;12.27;;;;;;;;;;5117928;27;20023;-81
2022/10/30 07:15:50;;;;;;;14.82;12.73;;;;;;;;;;5118167;27;20034;-81
2022/10/30 07:18:16;;;;;;;13.40;11.95;;;;;;;;;;5136382;27;20026;-81
2022/10/30 07:20:42;;;;;;;15.45;12.30;;;;;;;;;;5136608;27;20483;-83
2022/10/30 07:23:08;;;;;;;14.27;11.95;;;;;;;;;;5117973;27;20061;-84
2022/10/30 07:25:34;;;;;;;14.30;11.88;;;;;;;;;;5136055;27;20030;-81
2022/10/30 07:28:00;;;;;;;15.82;12.90;;;;;;;;;;5136381;27;20141;-82
2022/10/30 07:30:26;;;;;;;13.45;11.15;;;;;;;;;;5117787;27;20020;-82
2022/10/30 07:32:56;;;;;;;13.98;11.70;;;;;;;;;;5136282;27;20019;-81
2022/10/30 07:35:22;;;;;;;12.95;11.05;;;;;;;;;;5136119;27;20047;-82
2022/10/30 07:37:48;;;;;;;13.73;11.43;;;;;;;;;;5136149;27;20043;-83
2022/10/30 07:40:15;;;;;;;14.80;12.23;;;;;;;;;;5136013;27;20497;-81
2022/10/30 07:42:41;;;;;;;15.43;11.63;;;;;;;;;;5136008;27;20035;-82
2022/10/30 07:45:08;;;;;;;14.60;12.57;;;;;;;;;;5135989;27;20064;-81
2022/10/30 07:47:38;;;;;;;14.88;11.45;;;;;;;;;;5135561;27;20066;-82
2022/10/30 07:50:04;;;;;;;15.88;11.50;;;;;;;;;;5135928;27;20051;-83
2022/10/30 07:52:31;;;;;;;15.75;12.15;;;;;;;;;;5135447;27;20073;-80
2022/10/30 07:54:58;;;;;;;13.73;11.73;;;;;;;;;;5135706;27;20026;-82
2022/10/30 07:57:24;;;;;;;12.98;11.40;;;;;;;;;;5135478;27;20019;-82
2022/10/30 07:59:50;;;;;;;15.48;12.15;;;;;;;;;;5135146;27;20028;-83
2022/10/30 08:02:16;;;;;;;13.80;10.30;;;;;;;;;;5135762;27;20517;-83
2022/10/30 08:04:42;;;;;;;14.00;11.73;;;;;;;;;;5135427;27;20023;-81
2022/10/30 08:07:08;;;;;;;16.55;12.95;;;;;;;;;;5135486;27;20072;-83
2022/10/30 08:09:34;;;;;;;15.18;11.95;;;;;;;;;;5116745;27;20062;-84
2022/10/30 08:12:00;;;;;;;14.60;11.43;;;;;;;;;;5116967;27;20428;-81
2022/10/30 08:14:26;;;;;;;13.43;11.35;;;;;;;;;;5135213;27;20098;-80
2022/10/30 08:16:52;;;;;;;15.43;11.32;;;;;;;;;;5135464;27;20438;-80
2022/10/30 08:19:18;;;;;;;13.27;11.30;;;;;;;;;;5135368;27;20094;-85
2022/10/30 08:21:44;;;;;;;12.82;10.60;;;;;;;;;;5134927;27;20027;-80
2022/10/30 08:24:10;;;;;;;11.65;9.55;;;;;;;;;;5135254;27;20027;-81
2022/10/30 08:26:36;;;;;;;13.23;11.13;;;;;;;;;;5134946;27;20070;-85
2022/10/30 08:29:03;;;;;;;11.02;9.80;;;;;;;;;;5135127;27;20060;-83
2022/10/30 08:31:29;;;;;;;13.00;10.38;;;;;;;;;;5134919;27;20030;-81
2022/10/30 08:33:55;;;;;;;12.55;10.18;;;;;;;;;;5134936;27;20035;-84
2022/10/30 08:36:21;;;;;;;11.70;9.30;;;;;;;;;;5134875;27;20378;-82
2022/10/30 08:38:47;;;;;;;12.02;9.93;;;;;;;;;;5134708;27;20027;-81
2022/10/30 08:41:13;;;;;;;11.15;8.93;;;;;;;;;;5134833;27;20030;-82
2022/10/30 08:43:39;;;;;;;13.48;9.75;;;;;;;;;;5134690;27;20071;-83
2022/10/30 08:46:05;;;;;;;10.93;9.77;;;;;;;;;;5134878;27;20046;-84
2022/10/30 08:48:31;;;;;;;13.88;11.55;;;;;;;;;;5134534;27;20030;-86
2022/10/30 08:51:00;;;;;;;11.63;10.40;;;;;;;;;;5134426;27;20038;-79
2022/10/30 08:53:26;;;;;;;12.57;11.27;;;;;;;;;;5134352;27;20141;-79
2022/10/30 08:55:52;;;;;;;15.77;10.32;;;;;;;;;;5133786;27;20025;-82
2022/10/30 08:58:18;;;;;;;14.25;10.13;;;;;;;;;;5134079;27;20051;-85
2022/10/30 09:00:44;;;;;;;14.40;10.68;;;;;;;;;;5134356;27;20021;-84
2022/10/30 09:03:10;;;;;;;13.95;10.90;;;;;;;;;;5134461;27;20019;-85
2022/10/30 09:05:36;;;;;;;13.80;11.60;;;;;;;;;;5134273;27;20020;-81
2022/10/30 09:08:03;;;;;;;13.82;11.48;;;;;;;;;;5134105;27;20462;-81
2022/10/30 09:10:29;;;;;;;12.25;10.85;;;;;;;;;;5133393;27;20027;-83
2022/10/30 09:13:00;;;;;;;12.32;11.00;;;;;;;;;;5134127;27;20470;-84
2022/10/30 09:15:26;;;;;;;14.32;11.65;;;;;;;;;;5134266;27;20101;-81
2022/10/30 09:18:00;;;;;;;12.70;11.20;;;;;;;;;;5133704;27;20030;-84
2022/10/30 09:20:26;;;;;;;13.47;11.43;;;;;;;;;;5133862;27;20027;-85
2022/10/30 09:22:53;;;;;;;12.65;10.98;;;;;;;;;;5133210;27;20378;-84
2022/10/30 09:25:19;;;;;;;11.10;10.00;;;;;;;;;;5134121;27;20019;-81
2022/10/30 09:27:47;;;;;;;12.43;10.55;;;;;;;;;;5133635;27;20028;-81
2022/10/30 09:30:14;;;;;;;12.85;10.65;;;;;;;;;;5134025;27;20015;-82
2022/10/30 09:32:40;;;;;;;11.75;10.55;;;;;;;;;;5133661;27;20053;-84
2022/10/30 09:35:06;;;;;;;12.43;11.15;;;;;;;;;;5133612;27;20027;-85
2022/10/30 09:37:33;;;;;;;12.32;10.43;;;;;;;;;;5115222;27;20027;-85
2022/10/30 09:39:59;;;;;;;11.75;9.90;;;;;;;;;;5133583;27;20038;-85
2022/10/30 09:42:35;;;;;;;12.43;11.13;;;;;;;;;;5133844;27;20032;-84
2022/10/30 09:45:07;;;;;;;12.23;10.60;;;;;;;;;;5133505;27;20031;-80
2022/10/30 09:47:52;;;;;;;15.75;13.95;;;;;;;;;;5133283;27;20027;-81
2022/10/30 09:50:36;;;;;;;13.10;11.27;;;;;;;;;;5133396;27;20024;-85
2022/10/30 09:53:04;;;;;;;10.45;9.32;;;;;;;;;;5114490;27;20142;-82
2022/10/30 09:55:31;;;;;;;10.38;9.27;;;;;;;;;;5133542;27;20055;-84
2022/10/30 09:57:57;;;;;;;10.20;9.13;;;;;;;;;;5133370;27;20486;-82
2022/10/30 10:00:27;;;;;;;9.85;8.80;;;;;;;;;;5133171;27;20023;-82
2022/10/30 10:03:09;;;;;;;10.77;8.98;;;;;;;;;;5133399;27;20430;-81
2022/10/30 10:05:41;;;;;;;12.70;10.50;;;;;;;;;;5133257;28;20023;-84
2022/10/30 10:08:09;;;;;;;10.68;9.20;;;;;;;;;;5132556;28;20023;-84
2022/10/30 10:10:40;;;;;;;11.52;9.80;;;;;;;;;;5133249;28;20063;-84
2022/10/30 10:13:11;;;;;;;13.48;10.45;;;;;;;;;;5133361;28;20024;-80
2022/10/30 10:15:46;;;;;;;12.88;9.88;;;;;;;;;;5133193;28;20048;-83
2022/10/30 10:18:16;;;;;;;9.95;8.95;;;;;;;;;;5133442;28;20482;-84
2022/10/30 10:20:47;;;;;;;12.10;9.55;;;;;;;;;;5132890;28;20059;-84
2022/10/30 10:23:39;;;;;;;10.68;9.57;;;;;;;;;;5136454;27;20026;-84
2022/10/30 10:26:09;;;;;;;9.30;8.40;;;;;;;;;;5132759;27;20078;-84
2022/10/30 10:28:35;;;;;;;11.27;9.32;;;;;;;;;;5137420;27;20027;-85
2022/10/30 10:31:07;;;;;;;10.75;8.70;;;;;;;;;;5137236;27;20034;-81
2022/10/30 10:33:52;;;;;;;11.02;9.75;;;;;;;;;;5119025;27;20363;-82
2022/10/30 10:36:21;;;;;;;11.88;10.27;;;;;;;;;;5136687;27;20047;-81
2022/10/30 10:39:01;;;;;;;10.35;8.75;;;;;;;;;;5137010;27;20042;-83
2022/10/30 10:41:51;;;;;;;11.82;9.63;;;;;;;;;;5137003;27;20023;-81
2022/10/30 10:44:17;;;;;;;10.75;8.45;;;;;;;;;;5136913;27;20034;-82
2022/10/30 10:47:01;;;;;;;13.32;11.45;;;;;;;;;;5136754;27;20374;-84
2022/10/30 10:49:33;;;;;;;11.32;9.27;;;;;;;;;;5136521;27;20071;-87
2022/10/30 10:52:01;;;;;;;10.18;9.25;;;;;;;;;;5136094;27;20047;-81
2022/10/30 10:54:31;;;;;;;10.43;9.32;;;;;;;;;;5136639;27;20094;-82
2022/10/30 10:56:58;;;;;;;11.85;9.98;;;;;;;;;;5136584;27;20050;-79
2022/10/30 10:59:42;;;;;;;10.30;8.57;;;;;;;;;;5136674;27;20023;-86
2022/10/30 11:02:08;;;;;;;8.63;7.73;;;;;;;;;;5136383;27;20358;-85
2022/10/30 11:04:38;;;;;;;9.60;8.63;;;;;;;;;;5136385;27;20367;-84
2022/10/30 11:07:20;;;;;;;12.52;8.35;;;;;;;;;;5135465;27;20055;-81
2022/10/30 11:09:47;;;;;;;10.98;7.90;;;;;;;;;;5135603;27;20110;-84
2022/10/30 11:12:13;;;;;;;8.93;7.60;;;;;;;;;;5116773;27;20027;-79
2022/10/30 11:14:40;;;;;;;8.77;7.18;;;;;;;;;;5136069;27;20019;-80
2022/10/30 11:17:24;;;;;;;9.10;7.90;;;;;;;;;;5135954;27;20023;-82
2022/10/30 11:19:50;;;;;;;;;;;;;;;;;;5136608;27;20011;-83
2022/10/30 11:22:26;;;;;;;8.55;7.20;;;;;;;;;;5136306;27;20274;-83
2022/10/30 11:24:53;;;;;;;8.90;7.35;;;;;;;;;;5136407;27;20027;-86
2022/10/30 11:27:25;;;;;;;11.15;7.38;;;;;;;;;;5136004;27;20023;-86
2022/10/30 11:29:58;;;;;;;9.95;6.13;;;;;;;;;;5136235;27;20526;-83
2022/10/30 11:32:29;;;;;;;8.13;6.90;;;;;;;;;;5136091;27;20046;-84
2022/10/30 11:35:07;;;;;;;8.95;6.63;;;;;;;;;;5134811;27;20023;-81
2022/10/30 11:37:34;;;;;;;7.40;5.85;;;;;;;;;;5136162;27;20423;-81
2022/10/30 11:40:07;;;;;;;10.15;7.90;;;;;;;;;;5135828;27;20088;-81
2022/10/30 11:42:34;;;;;;;9.33;7.37;;;;;;;;;;5135554;27;20470;-80
2022/10/30 11:45:00;;;;;;;8.02;7.10;;;;;;;;;;5135562;27;20037;-81
2022/10/30 11:47:36;;;;;;;7.65;6.88;;;;;;;;;;5135898;27;20038;-81
2022/10/30 11:50:04;;;;;;;7.68;6.97;;;;;;;;;;5135659;27;20545;-83
2022/10/30 11:52:35;;;;;;;9.43;7.28;;;;;;;;;;5135613;27;20077;-81
2022/10/30 11:55:07;;;;;;;7.72;6.93;;;;;;;;;;5134810;27;20115;-83
2022/10/30 11:57:53;;;;;;;9.18;7.00;;;;;;;;;;5116978;27;20055;-81
2022/10/30 12:00:23;;;;;;;7.32;6.40;;;;;;;;;;5117021;27;20030;-81
2022/10/30 12:02:50;;;;;;;7.80;7.00;;;;;;;;;;5135394;27;20076;-84
2022/10/30 12:05:25;;;;;;;6.72;6.00;;;;;;;;;;5135432;27;20026;-85
2022/10/30 12:07:52;;;;;;;7.55;6.82;;;;;;;;;;5135473;27;20031;-86
2022/10/30 12:10:25;;;;;;;7.25;6.00;;;;;;;;;;5135237;27;20497;-82
2022/10/30 12:12:52;;;;;;;7.25;6.32;;;;;;;;;;5135345;27;20023;-85
2022/10/30 12:15:19;;;;;;;8.88;6.38;;;;;;;;;;5135185;27;20011;-84
2022/10/30 12:18:04;;;;;;;6.85;5.22;;;;;;;;;;5134866;27;20034;-82
2022/10/30 12:20:30;;;;;;;7.97;5.95;;;;;;;;;;5134809;27;20019;-84
2022/10/30 12:22:56;;;;;;;6.38;5.75;;;;;;;;;;5134738;27;20043;-82
2022/10/30 12:25:26;;;;;;;7.07;5.60;;;;;;;;;;5134921;27;20019;-86
2022/10/30 12:28:12;;;;;;;8.15;5.82;;;;;;;;;;5116116;27;20076;-82
2022/10/30 12:30:44;;;;;;;10.45;5.97;;;;;;;;;;5134229;27;20474;-86
2022/10/30 12:33:33;;;;;;;6.70;5.30;;;;;;;;;;5134080;27;20474;-83
2022/10/30 12:35:59;;;;;;;7.70;5.50;;;;;;;;;;5134941;27;20076;-81
2022/10/30 12:38:45;;;;;;;9.05;5.63;;;;;;;;;;5134603;27;20023;-85
2022/10/30 12:41:20;;;;;;;8.07;6.25;;;;;;;;;;5134613;27;20048;-83
2022/10/30 12:43:49;;;;;;;9.07;5.50;;;;;;;;;;5134854;27;20094;-84
2022/10/30 12:46:27;;;;;;;6.45;4.93;;;;;;;;;;5134499;27;20056;-89
2022/10/30 12:49:12;;;;;;;6.32;5.25;;;;;;;;;;5134281;27;20027;-83
2022/10/30 12:51:42;;;;;;;5.82;4.93;;;;;;;;;;5134110;27;20461;-82
2022/10/30 12:54:27;;;;;;;9.80;6.60;;;;;;;;;;5133428;27;20037;-83
2022/10/30 12:56:53;;;;;;;;;;;;;;;;;;5133977;27;20031;-83
2022/10/30 12:59:37;;;;;;;6.22;4.88;;;;;;;;;;5134115;27;19903;-83
2022/10/30 13:02:22;;;;;;;8.57;5.32;;;;;;;;;;5133848;27;20476;-81
2022/10/30 13:04:51;;;;;;;5.68;4.72;;;;;;;;;;5133913;27;20130;-82
2022/10/30 13:07:36;;;;;;;11.07;7.65;;;;;;;;;;5115258;27;20351;-83
2022/10/30 13:10:14;;;;;;;8.40;6.05;;;;;;;;;;5132357;27;20019;-82
2022/10/30 13:12:44;;;;;;;6.38;4.80;;;;;;;;;;5113369;28;20019;-83
2022/10/30 13:15:17;;;;;;;7.90;5.07;;;;;;;;;;5113461;27;20028;-87
2022/10/30 13:17:43;;;;;;;7.20;5.22;;;;;;;;;;5129671;27;20027;-82
2022/10/30 13:20:13;;;;;;;10.23;5.75;;;;;;;;;;5113343;28;20474;-82
2022/10/30 13:22:45;;;;;;;6.88;5.32;;;;;;;;;;5113454;28;20042;-86
2022/10/30 13:25:11;;;;;;;7.03;5.00;;;;;;;;;;5115442;27;20027;-82
2022/10/30 13:27:56;;;;;;;8.38;6.25;;;;;;;;;;5133897;27;20416;-84
2022/10/30 13:30:25;;;;;;;7.10;4.60;;;;;;;;;;5133290;27;20027;-84
2022/10/30 13:33:09;;;;;;;6.03;4.03;;;;;;;;;;5133767;27;20031;-82
2022/10/30 13:35:35;;;;;;;;;;;;;;;;;;5130608;27;20478;-81
2022/10/30 13:38:10;;;;;;;7.68;4.55;;;;;;;;;;5133535;27;19907;-85
2022/10/30 13:40:39;;;;;;;8.18;5.35;;;;;;;;;;5133360;27;20042;-83
2022/10/30 13:43:24;;;;;;;7.65;4.22;;;;;;;;;;5133560;27;20030;-83
2022/10/30 13:45:56;;;;;;;6.28;4.53;;;;;;;;;;5133778;27;20369;-88
2022/10/30 13:48:28;;;;;;;7.60;4.82;;;;;;;;;;5133232;27;20019;-85
2022/10/30 13:50:54;;;;;;;6.70;4.53;;;;;;;;;;5133610;27;20064;-84
2022/10/30 13:53:23;;;;;;;6.93;4.88;;;;;;;;;;5133097;27;20549;-80
2022/10/30 13:55:52;;;;;;;6.28;5.55;;;;;;;;;;5133641;27;20076;-83
2022/10/30 13:58:37;;;;;;;5.13;4.63;;;;;;;;;;5132734;27;20080;-82
2022/10/30 14:01:21;;;;;;;5.13;4.40;;;;;;;;;;5133259;27;20050;-86
2022/10/30 14:04:06;;;;;;;6.93;4.40;;;;;;;;;;5133124;28;20118;-83
2022/10/30 14:06:32;;;;;;;;;;;;;;;;;;5131425;28;20412;-85
2022/10/30 14:09:21;;;;;;;7.63;4.88;;;;;;;;;;5114564;28;20274;-84
2022/10/30 14:11:47;;;;;;;4.80;3.38;;;;;;;;;;5120396;28;20104;-85
2022/10/30 14:14:32;;;;;;;9.73;5.38;;;;;;;;;;5133037;28;20050;-87
2022/10/30 14:16:58;;;;;;;;;;;;;;;;;;5133497;28;20011;-84
2022/10/30 14:19:25;;;;;;;11.32;6.45;;;;;;;;;;5133233;28;19910;-83
2022/10/30 14:21:53;;;;;;;9.95;7.20;;;;;;;;;;5131845;28;20015;-87
2022/10/30 14:24:22;;;;;;;18.88;13.15;;;;;;;;;;5112747;28;20023;-82
2022/10/30 14:26:50;;;;;;;16.20;11.77;;;;;;;;;;5094621;28;20051;-82
2022/10/30 14:29:34;;;;;;;16.83;11.70;;;;;;;;;;5112562;28;20042;-84
2022/10/30 14:32:00;;;;;;;;;;;;;;;;;;5112885;28;20020;-85
2022/10/30 14:34:45;;;;;;;11.38;10.00;;;;;;;;;;5112700;28;20369;-84
2022/10/30 14:37:11;;;;;;;;;;;;;;;;;;5113938;28;20111;-82